Time;durP1;ratioP1;P1;durP2;ratioP2;P2;SDS_P1;SDS_P2;PMS_P1;PMS_P2;Temp;Humidity;BMP_temperature;BMP_pressure;BME280_temperature;BME280_humidity;BME280_pressure;Samples;Min_cycle;Max_cycle;Signal;HPM_P1;HPM_P2
2023/11/29 00:00:40;;;;;;;18.40;11.35;;;;;;;;;;5094760;28;20016;-70
2023/11/29 00:03:26;;;;;;;19.92;11.68;;;;;;;;;;5094437;28;20405;-70
2023/11/29 00:06:11;;;;;;;18.55;12.18;;;;;;;;;;5094149;28;20024;-71
2023/11/29 00:08:57;;;;;;;19.25;11.73;;;;;;;;;;5094085;28;20090;-70
2023/11/29 00:11:43;;;;;;;19.75;12.13;;;;;;;;;;5079523;28;20110;-69
2023/11/29 00:14:30;;;;;;;18.98;11.85;;;;;;;;;;5094441;28;20035;-70
2023/11/29 00:17:16;;;;;;;20.13;11.82;;;;;;;;;;5094755;28;20345;-70
2023/11/29 00:20:01;;;;;;;21.05;12.32;;;;;;;;;;5093646;28;20401;-68
2023/11/29 00:22:47;;;;;;;17.48;11.65;;;;;;;;;;5094372;28;20047;-68
2023/11/29 00:25:32;;;;;;;19.30;12.13;;;;;;;;;;5093723;28;20089;-70
2023/11/29 00:28:18;;;;;;;17.08;11.63;;;;;;;;;;5093806;28;20441;-71
2023/11/29 00:31:04;;;;;;;18.58;11.82;;;;;;;;;;5094175;28;20028;-69
2023/11/29 00:33:49;;;;;;;18.83;11.98;;;;;;;;;;5094478;28;20027;-71
2023/11/29 00:36:35;;;;;;;25.60;13.52;;;;;;;;;;5079657;28;20020;-68
2023/11/29 00:39:20;;;;;;;22.88;12.60;;;;;;;;;;5094381;28;20094;-70
2023/11/29 00:42:06;;;;;;;22.88;13.60;;;;;;;;;;5093500;28;20020;-70
2023/11/29 00:44:52;;;;;;;21.13;13.82;;;;;;;;;;5080648;28;20020;-70
2023/11/29 00:47:37;;;;;;;22.95;13.75;;;;;;;;;;5080304;28;20020;-71
2023/11/29 00:50:23;;;;;;;22.80;13.63;;;;;;;;;;5093565;28;20095;-71
2023/11/29 00:53:09;;;;;;;23.13;13.73;;;;;;;;;;5093881;28;20419;-71
2023/11/29 00:55:54;;;;;;;24.13;14.43;;;;;;;;;;5094341;28;20099;-71
2023/11/29 00:58:40;;;;;;;23.88;13.07;;;;;;;;;;5094343;28;20032;-70
2023/11/29 01:01:25;;;;;;;24.70;14.35;;;;;;;;;;5093231;28;20120;-70
2023/11/29 01:04:11;;;;;;;25.83;13.30;;;;;;;;;;5094138;28;20391;-69
2023/11/29 01:06:57;;;;;;;21.67;13.48;;;;;;;;;;5093060;28;20423;-71
2023/11/29 01:09:42;;;;;;;25.02;14.00;;;;;;;;;;5080253;28;20055;-70
2023/11/29 01:12:28;;;;;;;26.02;13.77;;;;;;;;;;5093468;28;20012;-70
2023/11/29 01:15:13;;;;;;;22.17;14.60;;;;;;;;;;5094152;28;20024;-70
2023/11/29 01:17:59;;;;;;;23.63;14.07;;;;;;;;;;5093665;28;20024;-70
2023/11/29 01:20:45;;;;;;;25.15;14.68;;;;;;;;;;5093402;28;20016;-69
2023/11/29 01:23:30;;;;;;;23.77;14.85;;;;;;;;;;5097288;28;20075;-68
2023/11/29 01:26:16;;;;;;;23.30;13.68;;;;;;;;;;5097289;28;20102;-69
2023/11/29 01:29:02;;;;;;;27.02;15.07;;;;;;;;;;5096972;28;20099;-70
2023/11/29 01:31:47;;;;;;;23.35;14.23;;;;;;;;;;5098158;28;20056;-70
2023/11/29 01:34:33;;;;;;;23.70;14.63;;;;;;;;;;5096387;28;20475;-70
2023/11/29 01:37:18;;;;;;;25.80;14.70;;;;;;;;;;5097111;28;20043;-70
2023/11/29 01:40:04;;;;;;;27.63;15.38;;;;;;;;;;5097117;28;20016;-70
2023/11/29 01:42:50;;;;;;;26.67;15.45;;;;;;;;;;5098252;28;20080;-70
2023/11/29 01:45:35;;;;;;;25.33;15.27;;;;;;;;;;5096112;28;20039;-70
2023/11/29 01:48:22;;;;;;;27.92;15.80;;;;;;;;;;5096943;28;20031;-70
2023/11/29 01:51:08;;;;;;;24.73;14.43;;;;;;;;;;5082439;28;20043;-70
2023/11/29 01:53:54;;;;;;;26.45;16.02;;;;;;;;;;5082669;28;20035;-70
2023/11/29 01:56:40;;;;;;;23.15;14.10;;;;;;;;;;5097243;28;20020;-70
2023/11/29 01:59:25;;;;;;;25.27;15.13;;;;;;;;;;5082369;28;20470;-70
2023/11/29 02:02:12;;;;;;;25.02;14.48;;;;;;;;;;5096498;28;20030;-70
2023/11/29 02:04:57;;;;;;;23.38;13.75;;;;;;;;;;5096852;28;20031;-70
2023/11/29 02:07:43;;;;;;;24.33;14.13;;;;;;;;;;5095738;28;20513;-69
2023/11/29 02:10:29;;;;;;;23.90;14.70;;;;;;;;;;5096461;28;20341;-70
2023/11/29 02:13:15;;;;;;;26.13;14.70;;;;;;;;;;5097525;28;20463;-70
2023/11/29 02:16:00;;;;;;;24.02;13.60;;;;;;;;;;5096558;28;20028;-69
2023/11/29 02:18:46;;;;;;;24.35;13.75;;;;;;;;;;5096295;28;20106;-70
2023/11/29 02:21:31;;;;;;;24.58;14.77;;;;;;;;;;5096029;28;20039;-70
2023/11/29 02:24:19;;;;;;;24.48;14.57;;;;;;;;;;5096746;28;20024;-69
2023/11/29 02:27:05;;;;;;;22.73;14.05;;;;;;;;;;5096313;28;20058;-71
2023/11/29 02:29:51;;;;;;;24.67;14.48;;;;;;;;;;5095191;28;20508;-69
2023/11/29 02:32:36;;;;;;;22.02;13.48;;;;;;;;;;5083029;28;20028;-70
2023/11/29 02:35:22;;;;;;;21.55;13.07;;;;;;;;;;5081110;28;20020;-69
2023/11/29 02:38:09;;;;;;;21.08;12.88;;;;;;;;;;5081156;28;20020;-70
2023/11/29 02:40:54;;;;;;;20.92;12.82;;;;;;;;;;5082254;28;20056;-70
2023/11/29 02:43:40;;;;;;;21.23;12.10;;;;;;;;;;5096394;28;20016;-70
2023/11/29 02:46:25;;;;;;;20.45;12.48;;;;;;;;;;5096311;28;20078;-69
2023/11/29 02:49:11;;;;;;;21.70;13.15;;;;;;;;;;5095961;28;20107;-70
2023/11/29 02:51:56;;;;;;;21.17;12.60;;;;;;;;;;5081338;28;20368;-70
2023/11/29 02:54:42;;;;;;;21.55;12.65;;;;;;;;;;5081667;28;20137;-70
2023/11/29 02:57:28;;;;;;;20.25;12.48;;;;;;;;;;5094594;28;20027;-70
2023/11/29 03:00:13;;;;;;;20.83;12.40;;;;;;;;;;5081342;28;20024;-69
2023/11/29 03:02:59;;;;;;;21.02;11.45;;;;;;;;;;5096045;28;20013;-70
2023/11/29 03:05:45;;;;;;;19.05;11.77;;;;;;;;;;5095815;28;20020;-71
2023/11/29 03:08:30;;;;;;;18.20;11.13;;;;;;;;;;5095266;28;20023;-70
2023/11/29 03:11:16;;;;;;;17.30;10.65;;;;;;;;;;5095004;28;20030;-69
2023/11/29 03:14:02;;;;;;;20.65;12.10;;;;;;;;;;5081233;28;20028;-69
2023/11/29 03:16:48;;;;;;;17.33;10.20;;;;;;;;;;5095582;28;20047;-70
2023/11/29 03:19:34;;;;;;;18.65;10.18;;;;;;;;;;5094774;28;20043;-70
2023/11/29 03:22:19;;;;;;;17.25;10.40;;;;;;;;;;5081306;28;20034;-69
2023/11/29 03:25:05;;;;;;;16.75;10.60;;;;;;;;;;5094221;28;20020;-70
2023/11/29 03:27:52;;;;;;;16.02;10.38;;;;;;;;;;5094815;28;20024;-70
2023/11/29 03:30:38;;;;;;;15.90;9.27;;;;;;;;;;5080247;28;20020;-69
2023/11/29 03:33:24;;;;;;;15.20;9.82;;;;;;;;;;5094677;28;20129;-69
2023/11/29 03:36:09;;;;;;;15.60;9.35;;;;;;;;;;5095608;28;20341;-69
2023/11/29 03:38:55;;;;;;;15.48;9.70;;;;;;;;;;5081107;28;20027;-70
2023/11/29 03:41:41;;;;;;;15.02;10.02;;;;;;;;;;5095455;28;20105;-68
2023/11/29 03:44:26;;;;;;;15.13;9.30;;;;;;;;;;5095041;28;20089;-69
2023/11/29 03:47:12;;;;;;;14.60;9.65;;;;;;;;;;5079909;28;20034;-69
2023/11/29 03:49:57;;;;;;;15.23;9.88;;;;;;;;;;5094898;28;20020;-70
2023/11/29 03:52:43;;;;;;;14.77;9.35;;;;;;;;;;5094818;28;20036;-69
2023/11/29 03:55:28;;;;;;;13.38;8.93;;;;;;;;;;5079617;28;20058;-69
2023/11/29 03:58:14;;;;;;;13.65;9.23;;;;;;;;;;5079856;28;20024;-69
2023/11/29 04:01:03;;;;;;;14.30;9.77;;;;;;;;;;5095030;28;20410;-69
2023/11/29 04:03:48;;;;;;;14.75;9.60;;;;;;;;;;5094949;28;20024;-70
2023/11/29 04:06:34;;;;;;;15.02;9.88;;;;;;;;;;5094608;28;20058;-70
2023/11/29 04:09:19;;;;;;;17.98;10.00;;;;;;;;;;5094366;28;20353;-69
2023/11/29 04:12:05;;;;;;;15.80;10.25;;;;;;;;;;5080655;28;20161;-70
2023/11/29 04:14:51;;;;;;;16.08;10.30;;;;;;;;;;5094858;28;20056;-68
2023/11/29 04:17:37;;;;;;;15.05;9.85;;;;;;;;;;5093840;28;20034;-70
2023/11/29 04:20:22;;;;;;;14.18;9.50;;;;;;;;;;5094776;28;20036;-70
2023/11/29 04:23:08;;;;;;;13.55;8.85;;;;;;;;;;5094374;28;20048;-70
2023/11/29 04:25:55;;;;;;;13.38;9.05;;;;;;;;;;5079098;28;20020;-70
2023/11/29 04:28:41;;;;;;;11.73;8.35;;;;;;;;;;5094435;28;20027;-70
2023/11/29 04:31:26;;;;;;;12.82;8.23;;;;;;;;;;5093804;28;20425;-70
2023/11/29 04:34:12;;;;;;;12.88;8.38;;;;;;;;;;5094825;28;20016;-70
2023/11/29 04:36:58;;;;;;;12.65;7.85;;;;;;;;;;5093640;28;20016;-70
2023/11/29 04:39:43;;;;;;;11.23;7.53;;;;;;;;;;5094570;28;20103;-70
2023/11/29 04:42:29;;;;;;;11.85;8.10;;;;;;;;;;5094020;28;20054;-70
2023/11/29 04:45:14;;;;;;;11.00;7.95;;;;;;;;;;5095110;28;20040;-70
2023/11/29 04:48:00;;;;;;;11.52;7.57;;;;;;;;;;5094606;28;20476;-70
2023/11/29 04:50:46;;;;;;;11.43;7.25;;;;;;;;;;5094085;28;20032;-70
2023/11/29 04:53:31;;;;;;;10.30;7.78;;;;;;;;;;5080316;28;20043;-70
2023/11/29 04:56:18;;;;;;;11.60;8.20;;;;;;;;;;5094454;28;20052;-70
2023/11/29 04:59:04;;;;;;;12.00;8.32;;;;;;;;;;5082394;28;20107;-70
2023/11/29 05:01:49;;;;;;;11.05;7.75;;;;;;;;;;5098140;28;20036;-69
2023/11/29 05:04:35;;;;;;;11.60;7.85;;;;;;;;;;5098050;28;20098;-69
2023/11/29 05:07:21;;;;;;;11.50;7.30;;;;;;;;;;5098496;28;20233;-69
2023/11/29 05:10:07;;;;;;;11.15;7.63;;;;;;;;;;5097732;28;20352;-69
2023/11/29 05:12:53;;;;;;;11.27;7.50;;;;;;;;;;5098169;28;20044;-68
2023/11/29 05:15:41;;;;;;;11.80;7.88;;;;;;;;;;5097238;28;20405;-68
2023/11/29 05:18:27;;;;;;;11.68;7.43;;;;;;;;;;5097711;28;20031;-68
2023/11/29 05:21:12;;;;;;;10.73;7.43;;;;;;;;;;5096711;28;20027;-68
2023/11/29 05:23:58;;;;;;;12.10;7.65;;;;;;;;;;5098227;28;20020;-68
2023/11/29 05:26:43;;;;;;;10.45;7.10;;;;;;;;;;5097518;28;20055;-68
2023/11/29 05:29:29;;;;;;;12.00;7.50;;;;;;;;;;5097505;28;20020;-68
2023/11/29 05:32:14;;;;;;;10.57;7.22;;;;;;;;;;5097401;28;20012;-67
2023/11/29 05:35:00;;;;;;;12.27;7.75;;;;;;;;;;5097953;28;20028;-68
2023/11/29 05:37:46;;;;;;;11.85;7.57;;;;;;;;;;5096809;28;20016;-67
2023/11/29 05:40:32;;;;;;;11.38;7.47;;;;;;;;;;5096907;28;20028;-67
2023/11/29 05:43:17;;;;;;;9.80;7.07;;;;;;;;;;5082232;28;20034;-68
2023/11/29 05:46:03;;;;;;;10.57;7.72;;;;;;;;;;5096486;28;20016;-68
2023/11/29 05:48:49;;;;;;;13.07;7.93;;;;;;;;;;5097131;28;20440;-68
2023/11/29 05:51:35;;;;;;;9.48;6.97;;;;;;;;;;5096810;28;20043;-68
2023/11/29 05:54:21;;;;;;;11.00;6.82;;;;;;;;;;5096074;28;20066;-67
2023/11/29 05:57:06;;;;;;;9.30;6.60;;;;;;;;;;5095406;28;20472;-67
2023/11/29 05:59:55;;;;;;;7.70;6.13;;;;;;;;;;5081063;28;20025;-67
2023/11/29 06:02:41;;;;;;;8.57;6.43;;;;;;;;;;5096712;28;20024;-68
2023/11/29 06:05:27;;;;;;;8.32;6.05;;;;;;;;;;5082527;28;20034;-67
2023/11/29 06:08:12;;;;;;;8.05;5.97;;;;;;;;;;5095373;28;20044;-67
2023/11/29 06:10:58;;;;;;;8.10;5.80;;;;;;;;;;5080530;28;20095;-67
2023/11/29 06:13:43;;;;;;;8.35;5.68;;;;;;;;;;5097001;28;20446;-68
2023/11/29 06:16:29;;;;;;;8.05;5.97;;;;;;;;;;5097978;28;20020;-67
2023/11/29 06:19:15;;;;;;;7.78;5.85;;;;;;;;;;5082722;28;20416;-70
2023/11/29 06:22:00;;;;;;;8.02;5.65;;;;;;;;;;5096365;28;20117;-70
2023/11/29 06:24:46;;;;;;;6.93;5.28;;;;;;;;;;5081601;28;20034;-71
2023/11/29 06:27:32;;;;;;;7.78;5.55;;;;;;;;;;5082139;28;20081;-70
2023/11/29 06:30:17;;;;;;;7.00;5.18;;;;;;;;;;5096541;28;20440;-69
2023/11/29 06:33:04;;;;;;;7.78;5.60;;;;;;;;;;5081445;28;20031;-70
2023/11/29 06:35:50;;;;;;;7.40;5.20;;;;;;;;;;5096585;28;20066;-71
2023/11/29 06:38:35;;;;;;;8.15;5.70;;;;;;;;;;5095653;28;20024;-70
2023/11/29 06:41:21;;;;;;;6.82;5.13;;;;;;;;;;5095706;28;20105;-69
2023/11/29 06:44:07;;;;;;;7.20;5.47;;;;;;;;;;5096070;28;20024;-70
2023/11/29 06:46:54;;;;;;;7.90;5.47;;;;;;;;;;5080868;28;20042;-70
2023/11/29 06:49:40;;;;;;;8.68;6.03;;;;;;;;;;5081004;28;20047;-70
2023/11/29 06:52:26;;;;;;;8.75;5.50;;;;;;;;;;5095553;28;20063;-70
2023/11/29 06:55:12;;;;;;;9.52;6.40;;;;;;;;;;5080838;28;20097;-69
2023/11/29 06:57:58;;;;;;;8.10;6.13;;;;;;;;;;5081585;28;20070;-70
2023/11/29 07:00:44;;;;;;;8.45;6.05;;;;;;;;;;5080214;28;20020;-70
2023/11/29 07:03:29;;;;;;;8.52;5.65;;;;;;;;;;5095513;28;20397;-70
2023/11/29 07:06:22;;;;;;;8.20;6.05;;;;;;;;;;5095760;28;20020;-71
2023/11/29 07:09:07;;;;;;;7.50;5.53;;;;;;;;;;5081912;28;20069;-70
2023/11/29 07:11:53;;;;;;;7.55;5.47;;;;;;;;;;5095494;28;20020;-69
2023/11/29 07:14:39;;;;;;;7.93;5.35;;;;;;;;;;5087093;28;20023;-68
2023/11/29 07:17:25;;;;;;;6.38;4.50;;;;;;;;;;5092802;28;20076;-68
2023/11/29 07:20:10;;;;;;;7.72;4.90;;;;;;;;;;5092104;28;20479;-68
2023/11/29 07:22:56;;;;;;;7.00;4.68;;;;;;;;;;5092940;28;20031;-69
2023/11/29 07:25:42;;;;;;;6.35;4.28;;;;;;;;;;5092341;28;20031;-69
2023/11/29 07:28:27;;;;;;;9.75;3.92;;;;;;;;;;5092793;28;20464;-68
2023/11/29 07:31:13;;;;;;;5.72;4.30;;;;;;;;;;5092475;28;20103;-68
2023/11/29 07:33:58;;;;;;;5.38;4.22;;;;;;;;;;5092110;28;20028;-69
2023/11/29 07:36:49;;;;;;;6.75;4.78;;;;;;;;;;5092258;28;20417;-68
2023/11/29 07:39:35;;;;;;;5.80;4.20;;;;;;;;;;5092550;28;20059;-68
2023/11/29 07:42:20;;;;;;;6.25;4.60;;;;;;;;;;5087631;28;20514;-68
2023/11/29 07:45:06;;;;;;;6.47;4.43;;;;;;;;;;5094113;28;20035;-68
2023/11/29 07:47:52;;;;;;;6.07;4.28;;;;;;;;;;5093124;28;20031;-69
2023/11/29 07:50:38;;;;;;;7.78;3.60;;;;;;;;;;5093894;28;20063;-68
2023/11/29 07:53:23;;;;;;;5.55;4.22;;;;;;;;;;5093741;28;20024;-68
2023/11/29 07:56:09;;;;;;;4.95;3.80;;;;;;;;;;5093581;28;20028;-68
2023/11/29 07:58:55;;;;;;;4.57;3.40;;;;;;;;;;5093408;28;20020;-68
2023/11/29 08:01:41;;;;;;;5.30;4.03;;;;;;;;;;5093770;28;20028;-69
2023/11/29 08:04:27;;;;;;;5.07;3.88;;;;;;;;;;5078993;28;20032;-69
2023/11/29 08:07:12;;;;;;;5.90;4.10;;;;;;;;;;5092631;28;20112;-68
2023/11/29 08:09:58;;;;;;;5.90;4.35;;;;;;;;;;5092208;28;20031;-69
2023/11/29 08:12:44;;;;;;;4.97;3.90;;;;;;;;;;5092961;28;20032;-67
2023/11/29 08:15:29;;;;;;;5.68;4.05;;;;;;;;;;5093147;28;20078;-68
2023/11/29 08:18:15;;;;;;;5.55;4.32;;;;;;;;;;5092857;28;20020;-67
2023/11/29 08:21:01;;;;;;;6.28;4.30;;;;;;;;;;5093042;28;20031;-67
2023/11/29 08:23:46;;;;;;;5.28;4.03;;;;;;;;;;5093632;28;20097;-68
2023/11/29 08:26:32;;;;;;;5.18;4.07;;;;;;;;;;5092343;28;20444;-67
2023/11/29 08:29:17;;;;;;;4.72;3.42;;;;;;;;;;5093022;28;20024;-67
2023/11/29 08:32:03;;;;;;;7.97;3.95;;;;;;;;;;5092215;28;20012;-67
2023/11/29 08:34:49;;;;;;;4.47;3.42;;;;;;;;;;5093347;28;20028;-66
2023/11/29 08:37:34;;;;;;;3.97;3.00;;;;;;;;;;5092991;28;20441;-66
2023/11/29 08:40:20;;;;;;;3.67;3.30;;;;;;;;;;5093055;28;20024;-67
2023/11/29 08:43:06;;;;;;;6.50;3.50;;;;;;;;;;5092592;28;20052;-66
2023/11/29 08:45:52;;;;;;;5.15;3.72;;;;;;;;;;5092557;28;20038;-67
2023/11/29 08:48:37;;;;;;;5.25;3.95;;;;;;;;;;5091965;28;20539;-67
2023/11/29 08:51:23;;;;;;;5.72;3.88;;;;;;;;;;5078472;28;20063;-67
2023/11/29 08:54:08;;;;;;;5.47;3.88;;;;;;;;;;5092531;28;20012;-67
2023/11/29 08:56:54;;;;;;;5.15;3.40;;;;;;;;;;5078538;28;20020;-67
2023/11/29 08:59:40;;;;;;;5.45;4.07;;;;;;;;;;5092127;28;20459;-68
2023/11/29 09:02:27;;;;;;;4.68;3.20;;;;;;;;;;5091317;28;20440;-67
2023/11/29 09:05:13;;;;;;;4.82;3.80;;;;;;;;;;5092889;28;20023;-67
2023/11/29 09:07:58;;;;;;;5.22;3.85;;;;;;;;;;5092750;28;20024;-67
2023/11/29 09:10:45;;;;;;;5.00;4.13;;;;;;;;;;5091926;28;20107;-67
2023/11/29 09:13:30;;;;;;;4.68;3.63;;;;;;;;;;5091848;28;20451;-67
2023/11/29 09:16:17;;;;;;;4.45;3.42;;;;;;;;;;5092763;28;20054;-67
2023/11/29 09:19:02;;;;;;;5.10;3.88;;;;;;;;;;5091929;28;20337;-67
2023/11/29 09:21:48;;;;;;;5.88;4.10;;;;;;;;;;5092062;28;20351;-69
2023/11/29 09:24:35;;;;;;;5.10;4.18;;;;;;;;;;5092401;28;20444;-67
2023/11/29 09:27:21;;;;;;;6.55;4.25;;;;;;;;;;5090878;28;20020;-68
2023/11/29 09:30:06;;;;;;;9.10;4.38;;;;;;;;;;5092228;28;20127;-68
2023/11/29 09:32:52;;;;;;;7.50;4.35;;;;;;;;;;5092425;28;20024;-67
2023/11/29 09:35:37;;;;;;;5.47;4.18;;;;;;;;;;5091598;28;20043;-68
2023/11/29 09:38:23;;;;;;;5.57;4.30;;;;;;;;;;5084022;28;20457;-67
2023/11/29 09:41:09;;;;;;;6.47;4.53;;;;;;;;;;5078224;28;20024;-68
2023/11/29 09:43:54;;;;;;;5.80;4.15;;;;;;;;;;5090410;28;20409;-69
2023/11/29 09:46:40;;;;;;;5.82;4.32;;;;;;;;;;5094683;28;20028;-70
2023/11/29 09:49:31;;;;;;;9.45;6.30;;;;;;;;;;5095577;28;20111;-69
2023/11/29 09:52:17;;;;;;;7.80;5.13;;;;;;;;;;5094621;28;20132;-70
2023/11/29 09:55:04;;;;;;;13.07;7.13;;;;;;;;;;5094729;28;20508;-71
2023/11/29 09:57:50;;;;;;;8.65;5.40;;;;;;;;;;5095307;28;20024;-69
2023/11/29 10:00:36;;;;;;;10.60;5.60;;;;;;;;;;5081703;28;20530;-69
2023/11/29 10:03:22;;;;;;;11.95;7.03;;;;;;;;;;5095588;28;20055;-69
2023/11/29 10:06:08;;;;;;;7.68;5.72;;;;;;;;;;5095230;28;20052;-69
2023/11/29 10:08:54;;;;;;;9.38;6.28;;;;;;;;;;5095474;28;20112;-69
2023/11/29 10:11:41;;;;;;;7.88;5.25;;;;;;;;;;5095111;28;20076;-70
2023/11/29 10:14:26;;;;;;;7.43;5.03;;;;;;;;;;5095122;28;20505;-69
2023/11/29 10:17:13;;;;;;;7.40;4.63;;;;;;;;;;5095127;28;20024;-70
2023/11/29 10:19:59;;;;;;;6.13;4.70;;;;;;;;;;5095233;28;20020;-69
2023/11/29 10:22:48;;;;;;;7.38;5.50;;;;;;;;;;5095460;28;20024;-70
2023/11/29 10:25:33;;;;;;;7.82;5.85;;;;;;;;;;5094874;28;20020;-68
2023/11/29 10:28:19;;;;;;;9.95;6.07;;;;;;;;;;5094993;28;20027;-69
2023/11/29 10:31:05;;;;;;;9.48;5.68;;;;;;;;;;5094821;28;20012;-68
2023/11/29 10:33:51;;;;;;;7.78;5.40;;;;;;;;;;5080575;28;20032;-69
2023/11/29 10:36:40;;;;;;;9.65;5.80;;;;;;;;;;5080068;28;20028;-69
2023/11/29 10:39:28;;;;;;;9.52;6.60;;;;;;;;;;5093593;28;20092;-70
2023/11/29 10:42:14;;;;;;;8.10;5.72;;;;;;;;;;5094412;28;20479;-69
2023/11/29 10:45:00;;;;;;;7.53;5.65;;;;;;;;;;5093848;28;20020;-69
2023/11/29 10:47:58;;;;;;;9.05;6.07;;;;;;;;;;5093250;28;20019;-69
2023/11/29 10:50:50;;;;;;;8.80;6.20;;;;;;;;;;5093573;28;20483;-69
2023/11/29 10:53:35;;;;;;;8.50;6.45;;;;;;;;;;5094202;28;20027;-70
2023/11/29 10:56:21;;;;;;;9.48;6.32;;;;;;;;;;5093076;28;20034;-68
2023/11/29 10:59:17;;;;;;;7.32;6.13;;;;;;;;;;5094075;28;20027;-69
2023/11/29 11:02:02;;;;;;;9.98;6.57;;;;;;;;;;5094020;28;20064;-70
2023/11/29 11:05:00;;;;;;;8.98;6.55;;;;;;;;;;5095198;28;20359;-67
2023/11/29 11:07:47;;;;;;;10.13;6.60;;;;;;;;;;5079327;28;20348;-68
2023/11/29 11:10:32;;;;;;;10.38;6.60;;;;;;;;;;5080586;28;20012;-68
2023/11/29 11:13:35;;;;;;;8.38;6.07;;;;;;;;;;5094238;28;20022;-69
2023/11/29 11:16:20;;;;;;;9.38;6.63;;;;;;;;;;5095807;28;20460;-68
2023/11/29 11:19:06;;;;;;;9.27;6.05;;;;;;;;;;5094524;28;20049;-67
2023/11/29 11:21:52;;;;;;;9.35;6.38;;;;;;;;;;5079695;28;20024;-69
2023/11/29 11:24:56;;;;;;;10.55;6.72;;;;;;;;;;5094140;28;20400;-69
2023/11/29 11:27:43;;;;;;;11.30;7.82;;;;;;;;;;5079665;28;20044;-69
2023/11/29 11:30:29;;;;;;;11.43;6.78;;;;;;;;;;5093869;28;20016;-67
2023/11/29 11:33:14;;;;;;;8.65;6.15;;;;;;;;;;5079602;28;20448;-67
2023/11/29 11:36:01;;;;;;;9.35;6.70;;;;;;;;;;5093578;28;20115;-69
2023/11/29 11:38:47;;;;;;;8.73;6.25;;;;;;;;;;5093181;28;20020;-69
2023/11/29 11:41:32;;;;;;;12.38;6.63;;;;;;;;;;5092493;28;20096;-68
2023/11/29 11:44:19;;;;;;;9.65;6.82;;;;;;;;;;5093871;28;20035;-68
2023/11/29 11:47:04;;;;;;;10.20;6.70;;;;;;;;;;5092849;28;20056;-69
2023/11/29 11:49:50;;;;;;;8.18;6.15;;;;;;;;;;5093456;28;20051;-69
2023/11/29 11:52:36;;;;;;;11.30;6.70;;;;;;;;;;5081574;28;20061;-70
2023/11/29 11:55:22;;;;;;;10.73;7.00;;;;;;;;;;5092089;28;20451;-67
2023/11/29 11:58:09;;;;;;;12.18;7.63;;;;;;;;;;5094114;28;20348;-67
2023/11/29 12:00:55;;;;;;;10.20;6.43;;;;;;;;;;5079855;28;20102;-67
2023/11/29 12:03:40;;;;;;;10.45;7.03;;;;;;;;;;5092492;28;20094;-67
2023/11/29 12:06:26;;;;;;;10.20;6.70;;;;;;;;;;5092058;28;20023;-68
2023/11/29 12:09:12;;;;;;;10.43;6.53;;;;;;;;;;5094337;28;20016;-67
2023/11/29 12:12:10;;;;;;;9.45;6.70;;;;;;;;;;5093504;28;20020;-68
2023/11/29 12:14:56;;;;;;;11.63;7.28;;;;;;;;;;5094171;28;20030;-68
2023/11/29 12:17:42;;;;;;;12.02;7.18;;;;;;;;;;5093104;28;20543;-68
2023/11/29 12:20:28;;;;;;;9.43;6.72;;;;;;;;;;5092130;28;20023;-67
2023/11/29 12:23:14;;;;;;;11.00;6.78;;;;;;;;;;5079247;28;20024;-68
2023/11/29 12:26:01;;;;;;;8.95;6.60;;;;;;;;;;5079785;28;20028;-67
2023/11/29 12:28:47;;;;;;;9.48;7.00;;;;;;;;;;5094422;28;20352;-68
2023/11/29 12:31:36;;;;;;;10.25;7.57;;;;;;;;;;5094323;28;20094;-69
2023/11/29 12:34:22;;;;;;;13.15;8.30;;;;;;;;;;5080406;28;20030;-69
2023/11/29 12:37:09;;;;;;;16.50;9.40;;;;;;;;;;5093792;28;20016;-69
2023/11/29 12:39:56;;;;;;;9.10;6.47;;;;;;;;;;5093679;28;20047;-68
2023/11/29 12:42:42;;;;;;;9.93;7.10;;;;;;;;;;5094455;28;20051;-69
2023/11/29 12:45:28;;;;;;;11.18;7.00;;;;;;;;;;5079061;28;20024;-68
2023/11/29 12:48:14;;;;;;;10.95;7.25;;;;;;;;;;5093788;28;20031;-69
2023/11/29 12:50:59;;;;;;;10.57;7.25;;;;;;;;;;5079738;28;20044;-68
2023/11/29 12:53:45;;;;;;;9.90;6.95;;;;;;;;;;5080235;28;20107;-68
2023/11/29 12:56:30;;;;;;;8.95;6.55;;;;;;;;;;5093613;28;20024;-69
2023/11/29 12:59:16;;;;;;;12.27;7.22;;;;;;;;;;5093786;28;20080;-68
2023/11/29 13:02:03;;;;;;;9.95;7.15;;;;;;;;;;5079743;28;20060;-69
2023/11/29 13:04:48;;;;;;;9.18;6.55;;;;;;;;;;5093438;28;20032;-68
2023/11/29 13:07:34;;;;;;;10.43;7.13;;;;;;;;;;5093788;28;20097;-68
2023/11/29 13:10:20;;;;;;;10.40;6.68;;;;;;;;;;5094304;28;20388;-70
2023/11/29 13:13:07;;;;;;;9.50;6.50;;;;;;;;;;5093721;28;20034;-69
2023/11/29 13:15:52;;;;;;;10.02;6.57;;;;;;;;;;5093380;28;20020;-69
2023/11/29 13:18:38;;;;;;;9.10;6.30;;;;;;;;;;5095962;28;20031;-68
2023/11/29 13:21:23;;;;;;;10.05;6.80;;;;;;;;;;5097853;28;20035;-70
2023/11/29 13:24:09;;;;;;;13.30;7.20;;;;;;;;;;5083632;28;20077;-70
2023/11/29 13:26:55;;;;;;;8.90;6.93;;;;;;;;;;5083640;28;20341;-70
2023/11/29 13:29:40;;;;;;;10.60;7.18;;;;;;;;;;5082878;28;20080;-71
2023/11/29 13:32:26;;;;;;;11.60;7.72;;;;;;;;;;5097943;28;20035;-70
2023/11/29 13:35:12;;;;;;;11.27;7.15;;;;;;;;;;5097878;28;20103;-71
2023/11/29 13:37:58;;;;;;;9.63;6.55;;;;;;;;;;5097296;28;20020;-72
2023/11/29 13:40:43;;;;;;;10.07;7.03;;;;;;;;;;5082986;28;20455;-72
2023/11/29 13:43:29;;;;;;;12.18;7.18;;;;;;;;;;5083400;28;20024;-72
2023/11/29 13:46:15;;;;;;;10.63;6.70;;;;;;;;;;5098213;28;20459;-71
2023/11/29 13:49:00;;;;;;;11.38;6.72;;;;;;;;;;5096827;28;20046;-72
2023/11/29 13:51:48;;;;;;;11.02;7.38;;;;;;;;;;5082835;28;20075;-73
2023/11/29 13:54:34;;;;;;;10.10;7.20;;;;;;;;;;5083462;28;20024;-72
2023/11/29 13:57:19;;;;;;;12.48;7.47;;;;;;;;;;5096879;28;20031;-71
2023/11/29 14:00:05;;;;;;;11.70;7.68;;;;;;;;;;5096327;28;20026;-71
2023/11/29 14:02:51;;;;;;;10.90;7.28;;;;;;;;;;5096379;28;20030;-71
2023/11/29 14:05:37;;;;;;;12.27;7.75;;;;;;;;;;5096381;28;20024;-71
2023/11/29 14:08:22;;;;;;;13.40;8.38;;;;;;;;;;5096028;28;20356;-71
2023/11/29 14:11:08;;;;;;;11.95;7.75;;;;;;;;;;5096461;28;20077;-71
2023/11/29 14:13:54;;;;;;;13.27;8.30;;;;;;;;;;5096457;28;20024;-71
2023/11/29 14:16:41;;;;;;;12.45;8.38;;;;;;;;;;5096509;28;20028;-72
2023/11/29 14:19:27;;;;;;;11.70;7.20;;;;;;;;;;5096177;28;20103;-71
2023/11/29 14:22:13;;;;;;;10.60;7.47;;;;;;;;;;5096579;28;20051;-71
2023/11/29 14:24:58;;;;;;;11.07;7.43;;;;;;;;;;5094250;28;20022;-72
2023/11/29 14:27:45;;;;;;;11.85;7.97;;;;;;;;;;5094891;28;20091;-71
2023/11/29 14:30:30;;;;;;;11.93;8.10;;;;;;;;;;5093893;28;20103;-71
2023/11/29 14:33:18;;;;;;;11.70;6.88;;;;;;;;;;5075444;28;20017;-71
2023/11/29 14:36:03;;;;;;;11.02;7.75;;;;;;;;;;5075515;28;20052;-70
2023/11/29 14:38:50;;;;;;;12.45;7.22;;;;;;;;;;5074698;28;20033;-70
2023/11/29 14:41:36;;;;;;;9.23;6.43;;;;;;;;;;5074630;28;20029;-69
2023/11/29 14:44:21;;;;;;;10.02;6.80;;;;;;;;;;5086368;28;20020;-70
2023/11/29 14:47:07;;;;;;;13.20;7.65;;;;;;;;;;5096104;28;20020;-74
2023/11/29 14:49:52;;;;;;;11.00;7.20;;;;;;;;;;5095674;28;20020;-73
2023/11/29 14:52:38;;;;;;;9.90;6.85;;;;;;;;;;5095915;28;20036;-72
2023/11/29 14:55:25;;;;;;;13.70;8.23;;;;;;;;;;5095187;28;20038;-72
2023/11/29 14:58:10;;;;;;;10.32;7.07;;;;;;;;;;5095459;28;20024;-73
2023/11/29 15:00:56;;;;;;;10.80;7.43;;;;;;;;;;5095929;28;20020;-73
2023/11/29 15:03:41;;;;;;;10.30;6.82;;;;;;;;;;5096278;28;20103;-71
2023/11/29 15:06:27;;;;;;;9.88;6.63;;;;;;;;;;5096249;28;20111;-71
2023/11/29 15:09:13;;;;;;;10.73;7.30;;;;;;;;;;5095390;28;20440;-72
2023/11/29 15:11:58;;;;;;;11.52;7.47;;;;;;;;;;5096527;28;20039;-73
2023/11/29 15:14:44;;;;;;;10.48;7.00;;;;;;;;;;5096830;28;20429;-71
2023/11/29 15:17:29;;;;;;;10.98;7.25;;;;;;;;;;5095512;28;20034;-71
2023/11/29 15:20:15;;;;;;;11.75;7.05;;;;;;;;;;5081678;28;20022;-72
2023/11/29 15:23:01;;;;;;;11.57;7.10;;;;;;;;;;5094438;28;20016;-71
2023/11/29 15:25:47;;;;;;;10.55;6.80;;;;;;;;;;5093642;28;20024;-72
2023/11/29 15:28:33;;;;;;;11.35;7.40;;;;;;;;;;5095014;28;20073;-73
2023/11/29 15:31:18;;;;;;;10.38;7.47;;;;;;;;;;5094560;28;20019;-71
2023/11/29 15:34:04;;;;;;;12.23;7.60;;;;;;;;;;5092344;28;20026;-72
2023/11/29 15:36:49;;;;;;;12.45;8.15;;;;;;;;;;5094535;28;20024;-71
2023/11/29 15:39:35;;;;;;;12.98;8.77;;;;;;;;;;5093910;28;20031;-73
2023/11/29 15:42:21;;;;;;;14.68;8.63;;;;;;;;;;5092724;28;20104;-71
2023/11/29 15:45:07;;;;;;;12.55;8.25;;;;;;;;;;5094642;28;20448;-72
2023/11/29 15:47:53;;;;;;;14.73;7.50;;;;;;;;;;5093447;28;20070;-71
2023/11/29 15:50:39;;;;;;;12.45;7.95;;;;;;;;;;5092893;28;20047;-71
2023/11/29 15:53:24;;;;;;;11.40;7.50;;;;;;;;;;5093353;28;20051;-72
2023/11/29 15:56:10;;;;;;;10.60;7.45;;;;;;;;;;5093684;28;20067;-70
2023/11/29 15:58:56;;;;;;;12.52;7.93;;;;;;;;;;5093895;28;20341;-71
2023/11/29 16:01:41;;;;;;;13.93;8.40;;;;;;;;;;5094190;28;20077;-73
2023/11/29 16:04:27;;;;;;;12.35;7.75;;;;;;;;;;5093829;28;20016;-71
2023/11/29 16:07:12;;;;;;;13.15;7.70;;;;;;;;;;5093637;28;20056;-70
2023/11/29 16:09:58;;;;;;;13.95;7.70;;;;;;;;;;5094472;28;20012;-70
2023/11/29 16:12:44;;;;;;;12.63;8.05;;;;;;;;;;5094205;28;20023;-68
2023/11/29 16:15:29;;;;;;;11.40;7.88;;;;;;;;;;5094111;28;20078;-72
2023/11/29 16:18:15;;;;;;;11.75;7.72;;;;;;;;;;5079117;28;20452;-70
2023/11/29 16:21:00;;;;;;;11.40;7.38;;;;;;;;;;5094062;28;20459;-72